sensor_id;sensor_type;location;lat;lon;timestamp;P1;durP1;ratioP1;P2;durP2;ratioP2
1715;SDS011;855;48.824;9.220;2023-10-13T00:00:26;12.03;;;4.63;;
1715;SDS011;855;48.824;9.220;2023-10-13T00:02:55;16.20;;;6.87;;
1715;SDS011;855;48.824;9.220;2023-10-13T00:05:25;13.20;;;5.10;;
1715;SDS011;855;48.824;9.220;2023-10-13T00:07:53;14.97;;;5.10;;
1715;SDS011;855;48.824;9.220;2023-10-13T00:10:20;14.07;;;5.50;;
1715;SDS011;855;48.824;9.220;2023-10-13T00:12:46;10.97;;;5.57;;
1715;SDS011;855;48.824;9.220;2023-10-13T00:15:17;17.80;;;6.03;;
1715;SDS011;855;48.824;9.220;2023-10-13T00:17:46;11.07;;;4.97;;
1715;SDS011;855;48.824;9.220;2023-10-13T00:20:13;11.37;;;5.93;;
1715;SDS011;855;48.824;9.220;2023-10-13T00:23:00;10.00;;;5.13;;
1715;SDS011;855;48.824;9.220;2023-10-13T00:25:31;13.73;;;5.50;;
1715;SDS011;855;48.824;9.220;2023-10-13T00:28:08;14.87;;;6.93;;
1715;SDS011;855;48.824;9.220;2023-10-13T00:30:37;12.23;;;4.93;;
1715;SDS011;855;48.824;9.220;2023-10-13T00:33:03;14.90;;;6.70;;
1715;SDS011;855;48.824;9.220;2023-10-13T00:35:31;17.10;;;6.47;;
1715;SDS011;855;48.824;9.220;2023-10-13T00:38:02;12.30;;;5.83;;
1715;SDS011;855;48.824;9.220;2023-10-13T00:40:37;8.50;;;5.07;;
1715;SDS011;855;48.824;9.220;2023-10-13T00:43:09;10.93;;;5.20;;
1715;SDS011;855;48.824;9.220;2023-10-13T00:45:55;10.17;;;5.03;;
1715;SDS011;855;48.824;9.220;2023-10-13T00:48:23;18.53;;;6.40;;
1715;SDS011;855;48.824;9.220;2023-10-13T00:50:55;15.43;;;5.27;;
1715;SDS011;855;48.824;9.220;2023-10-13T00:53:27;14.00;;;5.27;;
1715;SDS011;855;48.824;9.220;2023-10-13T00:55:54;20.50;;;6.93;;
1715;SDS011;855;48.824;9.220;2023-10-13T00:58:22;15.40;;;6.07;;
1715;SDS011;855;48.824;9.220;2023-10-13T01:00:50;15.50;;;6.37;;
1715;SDS011;855;48.824;9.220;2023-10-13T01:03:23;14.60;;;6.00;;
1715;SDS011;855;48.824;9.220;2023-10-13T01:05:52;14.60;;;5.27;;
1715;SDS011;855;48.824;9.220;2023-10-13T01:08:30;18.47;;;7.93;;
1715;SDS011;855;48.824;9.220;2023-10-13T01:11:00;16.60;;;7.03;;
1715;SDS011;855;48.824;9.220;2023-10-13T01:13:27;20.40;;;6.43;;
1715;SDS011;855;48.824;9.220;2023-10-13T01:15:56;14.43;;;6.33;;
1715;SDS011;855;48.824;9.220;2023-10-13T01:18:24;12.40;;;6.40;;
1715;SDS011;855;48.824;9.220;2023-10-13T01:20:53;14.27;;;6.50;;
1715;SDS011;855;48.824;9.220;2023-10-13T01:23:25;16.63;;;6.10;;
1715;SDS011;855;48.824;9.220;2023-10-13T01:25:53;18.07;;;7.30;;
1715;SDS011;855;48.824;9.220;2023-10-13T01:28:21;12.10;;;5.93;;
1715;SDS011;855;48.824;9.220;2023-10-13T01:30:47;19.80;;;8.47;;
1715;SDS011;855;48.824;9.220;2023-10-13T01:33:16;10.03;;;5.57;;
1715;SDS011;855;48.824;9.220;2023-10-13T01:35:42;14.67;;;7.30;;
1715;SDS011;855;48.824;9.220;2023-10-13T01:38:12;10.20;;;5.63;;
1715;SDS011;855;48.824;9.220;2023-10-13T01:40:40;15.30;;;5.83;;
1715;SDS011;855;48.824;9.220;2023-10-13T01:43:08;15.33;;;6.47;;
1715;SDS011;855;48.824;9.220;2023-10-13T01:45:36;16.83;;;6.40;;
1715;SDS011;855;48.824;9.220;2023-10-13T01:48:14;14.67;;;5.47;;
1715;SDS011;855;48.824;9.220;2023-10-13T01:50:43;14.23;;;6.70;;
1715;SDS011;855;48.824;9.220;2023-10-13T01:53:17;14.87;;;5.90;;
1715;SDS011;855;48.824;9.220;2023-10-13T01:55:46;24.80;;;6.70;;
1715;SDS011;855;48.824;9.220;2023-10-13T01:58:12;21.20;;;6.50;;
1715;SDS011;855;48.824;9.220;2023-10-13T02:00:41;12.50;;;5.33;;
1715;SDS011;855;48.824;9.220;2023-10-13T02:03:07;10.50;;;6.17;;
1715;SDS011;855;48.824;9.220;2023-10-13T02:05:40;15.00;;;5.70;;
1715;SDS011;855;48.824;9.220;2023-10-13T02:08:12;11.70;;;5.82;;
1715;SDS011;855;48.824;9.220;2023-10-13T02:10:43;12.20;;;5.53;;
1715;SDS011;855;48.824;9.220;2023-10-13T02:13:12;14.63;;;5.30;;
1715;SDS011;855;48.824;9.220;2023-10-13T02:15:42;18.03;;;6.13;;
1715;SDS011;855;48.824;9.220;2023-10-13T02:18:09;19.30;;;7.20;;
1715;SDS011;855;48.824;9.220;2023-10-13T02:20:36;14.73;;;5.70;;
1715;SDS011;855;48.824;9.220;2023-10-13T02:23:08;16.93;;;6.27;;
1715;SDS011;855;48.824;9.220;2023-10-13T02:25:35;8.13;;;4.60;;
1715;SDS011;855;48.824;9.220;2023-10-13T02:28:09;17.07;;;6.90;;
1715;SDS011;855;48.824;9.220;2023-10-13T02:30:39;11.80;;;5.10;;
1715;SDS011;855;48.824;9.220;2023-10-13T02:33:10;12.60;;;5.77;;
1715;SDS011;855;48.824;9.220;2023-10-13T02:35:40;11.53;;;6.47;;
1715;SDS011;855;48.824;9.220;2023-10-13T02:38:15;11.57;;;6.10;;
1715;SDS011;855;48.824;9.220;2023-10-13T02:40:51;13.60;;;4.70;;
1715;SDS011;855;48.824;9.220;2023-10-13T02:43:22;12.80;;;6.20;;
1715;SDS011;855;48.824;9.220;2023-10-13T02:45:54;14.77;;;5.27;;
1715;SDS011;855;48.824;9.220;2023-10-13T02:48:24;12.30;;;5.83;;
1715;SDS011;855;48.824;9.220;2023-10-13T02:50:55;11.60;;;5.03;;
1715;SDS011;855;48.824;9.220;2023-10-13T02:53:23;18.20;;;6.10;;
1715;SDS011;855;48.824;9.220;2023-10-13T02:55:50;17.77;;;5.77;;
1715;SDS011;855;48.824;9.220;2023-10-13T02:58:17;15.23;;;6.80;;
1715;SDS011;855;48.824;9.220;2023-10-13T03:00:46;13.30;;;6.27;;
1715;SDS011;855;48.824;9.220;2023-10-13T03:03:12;17.97;;;5.97;;
1715;SDS011;855;48.824;9.220;2023-10-13T03:05:43;16.50;;;5.50;;
1715;SDS011;855;48.824;9.220;2023-10-13T03:08:10;15.47;;;5.47;;
1715;SDS011;855;48.824;9.220;2023-10-13T03:10:50;26.50;;;6.30;;
1715;SDS011;855;48.824;9.220;2023-10-13T03:13:19;11.73;;;5.40;;
1715;SDS011;855;48.824;9.220;2023-10-13T03:15:47;11.93;;;6.23;;
1715;SDS011;855;48.824;9.220;2023-10-13T03:18:13;12.10;;;5.93;;
1715;SDS011;855;48.824;9.220;2023-10-13T03:20:43;9.73;;;4.90;;
1715;SDS011;855;48.824;9.220;2023-10-13T03:23:09;11.13;;;4.63;;
1715;SDS011;855;48.824;9.220;2023-10-13T03:25:36;10.43;;;4.60;;
1715;SDS011;855;48.824;9.220;2023-10-13T03:28:07;11.93;;;6.37;;
1715;SDS011;855;48.824;9.220;2023-10-13T03:30:38;16.97;;;5.60;;
1715;SDS011;855;48.824;9.220;2023-10-13T03:33:09;15.80;;;6.07;;
1715;SDS011;855;48.824;9.220;2023-10-13T03:35:37;14.43;;;5.33;;
1715;SDS011;855;48.824;9.220;2023-10-13T03:38:05;10.53;;;5.80;;
1715;SDS011;855;48.824;9.220;2023-10-13T03:40:41;11.17;;;4.77;;
1715;SDS011;855;48.824;9.220;2023-10-13T03:43:13;22.23;;;5.03;;
1715;SDS011;855;48.824;9.220;2023-10-13T03:45:42;21.13;;;5.47;;
1715;SDS011;855;48.824;9.220;2023-10-13T03:48:14;13.30;;;4.83;;
1715;SDS011;855;48.824;9.220;2023-10-13T03:50:53;11.60;;;5.80;;
1715;SDS011;855;48.824;9.220;2023-10-13T03:53:28;11.17;;;5.60;;
1715;SDS011;855;48.824;9.220;2023-10-13T03:55:58;15.40;;;5.73;;
1715;SDS011;855;48.824;9.220;2023-10-13T03:58:34;14.93;;;5.93;;
1715;SDS011;855;48.824;9.220;2023-10-13T04:01:07;13.37;;;5.27;;
1715;SDS011;855;48.824;9.220;2023-10-13T04:03:38;13.37;;;5.30;;
1715;SDS011;855;48.824;9.220;2023-10-13T04:06:21;13.20;;;6.00;;
1715;SDS011;855;48.824;9.220;2023-10-13T04:09:09;11.73;;;5.07;;
1715;SDS011;855;48.824;9.220;2023-10-13T04:11:52;15.73;;;5.70;;
1715;SDS011;855;48.824;9.220;2023-10-13T04:14:36;12.17;;;5.30;;
1715;SDS011;855;48.824;9.220;2023-10-13T04:17:22;13.30;;;6.00;;
1715;SDS011;855;48.824;9.220;2023-10-13T04:19:53;12.60;;;5.53;;
1715;SDS011;855;48.824;9.220;2023-10-13T04:22:35;12.30;;;6.00;;
1715;SDS011;855;48.824;9.220;2023-10-13T04:25:17;13.93;;;5.33;;
1715;SDS011;855;48.824;9.220;2023-10-13T04:28:17;13.27;;;5.53;;
1715;SDS011;855;48.824;9.220;2023-10-13T04:31:03;21.17;;;6.33;;
1715;SDS011;855;48.824;9.220;2023-10-13T04:33:38;20.73;;;7.17;;
1715;SDS011;855;48.824;9.220;2023-10-13T04:36:17;17.33;;;6.50;;
1715;SDS011;855;48.824;9.220;2023-10-13T04:39:02;17.60;;;5.80;;
1715;SDS011;855;48.824;9.220;2023-10-13T04:41:35;10.20;;;5.70;;
1715;SDS011;855;48.824;9.220;2023-10-13T04:44:04;10.47;;;5.63;;
1715;SDS011;855;48.824;9.220;2023-10-13T04:47:05;15.60;;;6.80;;
1715;SDS011;855;48.824;9.220;2023-10-13T04:49:42;14.37;;;5.53;;
1715;SDS011;855;48.824;9.220;2023-10-13T04:52:16;11.17;;;5.80;;
1715;SDS011;855;48.824;9.220;2023-10-13T04:55:01;13.20;;;5.70;;
1715;SDS011;855;48.824;9.220;2023-10-13T04:57:42;15.43;;;7.10;;
1715;SDS011;855;48.824;9.220;2023-10-13T05:00:12;12.33;;;5.17;;
1715;SDS011;855;48.824;9.220;2023-10-13T05:02:57;14.00;;;7.50;;
1715;SDS011;855;48.824;9.220;2023-10-13T05:05:42;10.83;;;5.30;;
1715;SDS011;855;48.824;9.220;2023-10-13T05:08:32;15.90;;;4.87;;
1715;SDS011;855;48.824;9.220;2023-10-13T05:11:16;17.37;;;6.20;;
1715;SDS011;855;48.824;9.220;2023-10-13T05:14:00;12.70;;;6.10;;
1715;SDS011;855;48.824;9.220;2023-10-13T05:16:44;17.60;;;6.20;;
1715;SDS011;855;48.824;9.220;2023-10-13T05:19:29;15.30;;;7.07;;
1715;SDS011;855;48.824;9.220;2023-10-13T05:22:13;22.07;;;7.00;;
1715;SDS011;855;48.824;9.220;2023-10-13T05:24:58;16.67;;;5.90;;
1715;SDS011;855;48.824;9.220;2023-10-13T05:27:42;12.03;;;5.70;;
1715;SDS011;855;48.824;9.220;2023-10-13T05:30:26;12.33;;;5.87;;
1715;SDS011;855;48.824;9.220;2023-10-13T05:33:10;16.80;;;6.03;;
1715;SDS011;855;48.824;9.220;2023-10-13T05:35:55;14.13;;;5.80;;
1715;SDS011;855;48.824;9.220;2023-10-13T05:38:39;12.53;;;6.33;;
1715;SDS011;855;48.824;9.220;2023-10-13T05:41:24;11.20;;;4.63;;
1715;SDS011;855;48.824;9.220;2023-10-13T05:44:11;16.10;;;6.20;;
1715;SDS011;855;48.824;9.220;2023-10-13T05:46:55;11.03;;;5.27;;
1715;SDS011;855;48.824;9.220;2023-10-13T05:49:58;7.93;;;4.40;;
1715;SDS011;855;48.824;9.220;2023-10-13T05:52:30;11.20;;;5.20;;
1715;SDS011;855;48.824;9.220;2023-10-13T05:55:21;11.10;;;4.60;;
1715;SDS011;855;48.824;9.220;2023-10-13T05:58:07;12.10;;;5.17;;
1715;SDS011;855;48.824;9.220;2023-10-13T06:00:53;15.90;;;5.93;;
1715;SDS011;855;48.824;9.220;2023-10-13T06:03:37;13.33;;;4.73;;
1715;SDS011;855;48.824;9.220;2023-10-13T06:06:21;13.37;;;5.90;;
1715;SDS011;855;48.824;9.220;2023-10-13T06:09:05;15.80;;;4.50;;
1715;SDS011;855;48.824;9.220;2023-10-13T06:11:49;13.47;;;5.00;;
1715;SDS011;855;48.824;9.220;2023-10-13T06:14:35;12.20;;;4.63;;
1715;SDS011;855;48.824;9.220;2023-10-13T06:17:27;11.90;;;4.70;;
1715;SDS011;855;48.824;9.220;2023-10-13T06:20:12;8.23;;;3.53;;
1715;SDS011;855;48.824;9.220;2023-10-13T06:22:56;12.03;;;4.80;;
1715;SDS011;855;48.824;9.220;2023-10-13T06:25:40;9.53;;;3.90;;
1715;SDS011;855;48.824;9.220;2023-10-13T06:28:24;9.80;;;4.90;;
1715;SDS011;855;48.824;9.220;2023-10-13T06:31:12;17.27;;;4.63;;
1715;SDS011;855;48.824;9.220;2023-10-13T06:33:46;13.43;;;5.37;;
1715;SDS011;855;48.824;9.220;2023-10-13T06:36:13;14.70;;;4.70;;
1715;SDS011;855;48.824;9.220;2023-10-13T06:38:40;19.93;;;5.60;;
1715;SDS011;855;48.824;9.220;2023-10-13T06:41:07;15.03;;;4.93;;
1715;SDS011;855;48.824;9.220;2023-10-13T06:43:34;18.13;;;4.30;;
1715;SDS011;855;48.824;9.220;2023-10-13T06:46:05;12.47;;;5.00;;
1715;SDS011;855;48.824;9.220;2023-10-13T06:48:36;13.70;;;4.30;;
1715;SDS011;855;48.824;9.220;2023-10-13T06:51:05;10.07;;;4.73;;
1715;SDS011;855;48.824;9.220;2023-10-13T06:53:43;15.07;;;5.13;;
1715;SDS011;855;48.824;9.220;2023-10-13T06:56:12;9.00;;;4.00;;
1715;SDS011;855;48.824;9.220;2023-10-13T06:58:47;28.73;;;4.97;;
1715;SDS011;855;48.824;9.220;2023-10-13T07:01:14;16.23;;;4.20;;
1715;SDS011;855;48.824;9.220;2023-10-13T07:03:48;21.40;;;5.33;;
1715;SDS011;855;48.824;9.220;2023-10-13T07:06:18;13.83;;;4.80;;
1715;SDS011;855;48.824;9.220;2023-10-13T07:08:45;9.47;;;4.07;;
1715;SDS011;855;48.824;9.220;2023-10-13T07:11:17;8.60;;;4.33;;
1715;SDS011;855;48.824;9.220;2023-10-13T07:13:58;9.83;;;4.63;;
1715;SDS011;855;48.824;9.220;2023-10-13T07:16:25;13.80;;;4.57;;
1715;SDS011;855;48.824;9.220;2023-10-13T07:19:01;16.50;;;5.37;;
1715;SDS011;855;48.824;9.220;2023-10-13T07:21:31;15.80;;;5.07;;
1715;SDS011;855;48.824;9.220;2023-10-13T07:23:58;12.73;;;5.17;;
1715;SDS011;855;48.824;9.220;2023-10-13T07:26:36;6.73;;;4.00;;
1715;SDS011;855;48.824;9.220;2023-10-13T07:29:07;9.20;;;3.93;;
1715;SDS011;855;48.824;9.220;2023-10-13T07:31:35;13.27;;;4.47;;
1715;SDS011;855;48.824;9.220;2023-10-13T07:34:07;12.13;;;5.10;;
1715;SDS011;855;48.824;9.220;2023-10-13T07:36:47;29.00;;;5.23;;
1715;SDS011;855;48.824;9.220;2023-10-13T07:39:14;10.57;;;4.70;;
1715;SDS011;855;48.824;9.220;2023-10-13T07:41:47;9.23;;;4.30;;
1715;SDS011;855;48.824;9.220;2023-10-13T07:44:17;11.07;;;5.00;;
1715;SDS011;855;48.824;9.220;2023-10-13T07:46:49;11.03;;;4.10;;
1715;SDS011;855;48.824;9.220;2023-10-13T07:49:28;7.43;;;3.70;;
1715;SDS011;855;48.824;9.220;2023-10-13T07:51:57;13.43;;;3.73;;
1715;SDS011;855;48.824;9.220;2023-10-13T07:54:41;7.87;;;4.03;;
1715;SDS011;855;48.824;9.220;2023-10-13T07:57:12;10.53;;;4.00;;
1715;SDS011;855;48.824;9.220;2023-10-13T07:59:41;10.97;;;3.77;;
1715;SDS011;855;48.824;9.220;2023-10-13T08:02:13;10.40;;;2.90;;
1715;SDS011;855;48.824;9.220;2023-10-13T08:05:00;8.70;;;4.30;;
1715;SDS011;855;48.824;9.220;2023-10-13T08:07:29;12.30;;;4.50;;
1715;SDS011;855;48.824;9.220;2023-10-13T08:09:56;6.77;;;2.90;;
1715;SDS011;855;48.824;9.220;2023-10-13T08:12:24;9.23;;;3.60;;
1715;SDS011;855;48.824;9.220;2023-10-13T08:14:52;12.13;;;5.60;;
1715;SDS011;855;48.824;9.220;2023-10-13T08:17:38;16.20;;;4.07;;
1715;SDS011;855;48.824;9.220;2023-10-13T08:20:11;9.20;;;3.73;;
1715;SDS011;855;48.824;9.220;2023-10-13T08:22:38;9.73;;;3.77;;
1715;SDS011;855;48.824;9.220;2023-10-13T08:25:11;17.80;;;4.27;;
1715;SDS011;855;48.824;9.220;2023-10-13T08:27:45;8.87;;;4.37;;
1715;SDS011;855;48.824;9.220;2023-10-13T08:30:44;4.63;;;3.27;;
1715;SDS011;855;48.824;9.220;2023-10-13T08:33:18;5.53;;;3.07;;
1715;SDS011;855;48.824;9.220;2023-10-13T08:35:49;9.23;;;3.37;;
1715;SDS011;855;48.824;9.220;2023-10-13T08:38:30;8.37;;;2.97;;
1715;SDS011;855;48.824;9.220;2023-10-13T08:41:15;6.77;;;3.20;;
1715;SDS011;855;48.824;9.220;2023-10-13T08:43:54;11.13;;;2.47;;
1715;SDS011;855;48.824;9.220;2023-10-13T08:46:31;5.97;;;3.53;;
1715;SDS011;855;48.824;9.220;2023-10-13T08:49:17;10.83;;;2.77;;
1715;SDS011;855;48.824;9.220;2023-10-13T08:51:48;9.57;;;3.40;;
1715;SDS011;855;48.824;9.220;2023-10-13T08:54:30;16.47;;;3.10;;
1715;SDS011;855;48.824;9.220;2023-10-13T08:57:11;10.73;;;3.43;;
1715;SDS011;855;48.824;9.220;2023-10-13T08:59:54;11.83;;;3.60;;
1715;SDS011;855;48.824;9.220;2023-10-13T09:02:22;9.07;;;2.90;;
1715;SDS011;855;48.824;9.220;2023-10-13T09:05:04;15.03;;;4.20;;
1715;SDS011;855;48.824;9.220;2023-10-13T09:07:52;4.70;;;2.50;;
1715;SDS011;855;48.824;9.220;2023-10-13T09:10:33;10.60;;;3.20;;
1715;SDS011;855;48.824;9.220;2023-10-13T09:12:58;11.00;;;3.20;;
1715;SDS011;855;48.824;9.220;2023-10-13T09:15:36;5.90;;;2.20;;
1715;SDS011;855;48.824;9.220;2023-10-13T09:18:30;8.83;;;2.30;;
1715;SDS011;855;48.824;9.220;2023-10-13T09:21:11;15.00;;;3.03;;
1715;SDS011;855;48.824;9.220;2023-10-13T09:24:12;19.93;;;5.00;;
1715;SDS011;855;48.824;9.220;2023-10-13T09:26:46;7.73;;;2.90;;
1715;SDS011;855;48.824;9.220;2023-10-13T09:29:14;12.63;;;2.90;;
1715;SDS011;855;48.824;9.220;2023-10-13T09:31:43;8.47;;;2.90;;
1715;SDS011;855;48.824;9.220;2023-10-13T09:34:20;5.67;;;2.37;;
1715;SDS011;855;48.824;9.220;2023-10-13T09:36:54;5.97;;;2.80;;
1715;SDS011;855;48.824;9.220;2023-10-13T09:39:24;5.30;;;2.70;;
1715;SDS011;855;48.824;9.220;2023-10-13T09:42:06;5.70;;;2.30;;
1715;SDS011;855;48.824;9.220;2023-10-13T09:44:35;2.73;;;1.80;;
1715;SDS011;855;48.824;9.220;2023-10-13T09:47:05;9.73;;;2.37;;
1715;SDS011;855;48.824;9.220;2023-10-13T09:49:44;6.27;;;2.60;;
1715;SDS011;855;48.824;9.220;2023-10-13T09:52:13;8.43;;;2.33;;
1715;SDS011;855;48.824;9.220;2023-10-13T09:54:53;4.00;;;2.20;;
1715;SDS011;855;48.824;9.220;2023-10-13T09:57:28;6.80;;;3.00;;
1715;SDS011;855;48.824;9.220;2023-10-13T10:00:02;3.00;;;1.90;;
1715;SDS011;855;48.824;9.220;2023-10-13T10:02:52;2.83;;;1.83;;
1715;SDS011;855;48.824;9.220;2023-10-13T10:05:25;4.80;;;1.73;;
1715;SDS011;855;48.824;9.220;2023-10-13T10:07:54;5.37;;;1.87;;
1715;SDS011;855;48.824;9.220;2023-10-13T10:10:24;2.90;;;1.70;;
1715;SDS011;855;48.824;9.220;2023-10-13T10:13:12;5.03;;;1.77;;
1715;SDS011;855;48.824;9.220;2023-10-13T10:15:46;6.13;;;2.00;;
1715;SDS011;855;48.824;9.220;2023-10-13T10:18:17;5.50;;;2.23;;
1715;SDS011;855;48.824;9.220;2023-10-13T10:20:48;4.13;;;2.07;;
1715;SDS011;855;48.824;9.220;2023-10-13T10:23:23;6.37;;;2.27;;
1715;SDS011;855;48.824;9.220;2023-10-13T10:25:52;6.93;;;2.73;;
1715;SDS011;855;48.824;9.220;2023-10-13T10:28:34;5.73;;;2.30;;
1715;SDS011;855;48.824;9.220;2023-10-13T10:31:04;11.87;;;1.97;;
1715;SDS011;855;48.824;9.220;2023-10-13T10:33:34;6.63;;;1.97;;
1715;SDS011;855;48.824;9.220;2023-10-13T10:36:03;4.03;;;1.87;;
1715;SDS011;855;48.824;9.220;2023-10-13T10:38:31;5.33;;;2.47;;
1715;SDS011;855;48.824;9.220;2023-10-13T10:41:04;7.13;;;2.30;;
1715;SDS011;855;48.824;9.220;2023-10-13T10:43:35;9.20;;;2.37;;
1715;SDS011;855;48.824;9.220;2023-10-13T10:46:08;7.10;;;2.00;;
1715;SDS011;855;48.824;9.220;2023-10-13T10:48:36;5.40;;;1.63;;
1715;SDS011;855;48.824;9.220;2023-10-13T10:51:09;4.60;;;1.87;;
1715;SDS011;855;48.824;9.220;2023-10-13T10:53:47;6.53;;;2.20;;
1715;SDS011;855;48.824;9.220;2023-10-13T10:56:18;6.53;;;1.93;;
1715;SDS011;855;48.824;9.220;2023-10-13T10:58:53;3.47;;;2.43;;
1715;SDS011;855;48.824;9.220;2023-10-13T11:01:21;6.60;;;2.00;;
1715;SDS011;855;48.824;9.220;2023-10-13T11:03:55;6.07;;;2.43;;
1715;SDS011;855;48.824;9.220;2023-10-13T11:06:34;3.20;;;1.70;;
1715;SDS011;855;48.824;9.220;2023-10-13T11:09:07;4.67;;;1.53;;
1715;SDS011;855;48.824;9.220;2023-10-13T11:11:44;8.00;;;1.50;;
1715;SDS011;855;48.824;9.220;2023-10-13T11:14:19;4.10;;;1.90;;
1715;SDS011;855;48.824;9.220;2023-10-13T11:16:49;3.90;;;2.00;;
1715;SDS011;855;48.824;9.220;2023-10-13T11:19:20;5.27;;;2.70;;
1715;SDS011;855;48.824;9.220;2023-10-13T11:21:52;4.43;;;2.10;;
1715;SDS011;855;48.824;9.220;2023-10-13T11:24:20;6.37;;;2.33;;
1715;SDS011;855;48.824;9.220;2023-10-13T11:26:48;3.77;;;2.13;;
1715;SDS011;855;48.824;9.220;2023-10-13T11:29:15;6.03;;;2.03;;
1715;SDS011;855;48.824;9.220;2023-10-13T11:31:45;4.07;;;2.10;;
1715;SDS011;855;48.824;9.220;2023-10-13T11:34:18;4.10;;;2.00;;
1715;SDS011;855;48.824;9.220;2023-10-13T11:36:45;8.23;;;2.00;;
1715;SDS011;855;48.824;9.220;2023-10-13T11:39:13;3.93;;;2.20;;
1715;SDS011;855;48.824;9.220;2023-10-13T11:41:49;8.77;;;1.73;;
1715;SDS011;855;48.824;9.220;2023-10-13T11:44:20;5.97;;;2.70;;
1715;SDS011;855;48.824;9.220;2023-10-13T11:46:49;4.40;;;2.47;;
1715;SDS011;855;48.824;9.220;2023-10-13T11:49:23;5.53;;;2.20;;
1715;SDS011;855;48.824;9.220;2023-10-13T11:52:02;5.43;;;2.10;;
1715;SDS011;855;48.824;9.220;2023-10-13T11:54:46;9.73;;;3.10;;
1715;SDS011;855;48.824;9.220;2023-10-13T11:57:13;5.23;;;2.20;;
1715;SDS011;855;48.824;9.220;2023-10-13T11:59:42;5.73;;;1.80;;
1715;SDS011;855;48.824;9.220;2023-10-13T12:02:19;4.40;;;2.10;;
1715;SDS011;855;48.824;9.220;2023-10-13T12:05:05;7.10;;;2.40;;
1715;SDS011;855;48.824;9.220;2023-10-13T12:07:38;3.10;;;1.60;;
1715;SDS011;855;48.824;9.220;2023-10-13T12:10:15;7.47;;;1.83;;
1715;SDS011;855;48.824;9.220;2023-10-13T12:12:58;10.70;;;2.20;;
1715;SDS011;855;48.824;9.220;2023-10-13T12:15:30;3.87;;;2.00;;
1715;SDS011;855;48.824;9.220;2023-10-13T12:18:02;6.33;;;2.00;;
1715;SDS011;855;48.824;9.220;2023-10-13T12:20:30;6.97;;;1.87;;
1715;SDS011;855;48.824;9.220;2023-10-13T12:23:01;5.40;;;2.00;;
1715;SDS011;855;48.824;9.220;2023-10-13T12:25:42;4.63;;;2.03;;
1715;SDS011;855;48.824;9.220;2023-10-13T12:28:26;8.70;;;2.03;;
1715;SDS011;855;48.824;9.220;2023-10-13T12:30:56;11.93;;;2.30;;
1715;SDS011;855;48.824;9.220;2023-10-13T12:33:31;5.27;;;1.73;;
1715;SDS011;855;48.824;9.220;2023-10-13T12:36:05;5.97;;;2.87;;
1715;SDS011;855;48.824;9.220;2023-10-13T12:38:55;3.70;;;2.00;;
1715;SDS011;855;48.824;9.220;2023-10-13T12:41:40;7.33;;;2.30;;
1715;SDS011;855;48.824;9.220;2023-10-13T12:44:25;5.37;;;2.00;;
1715;SDS011;855;48.824;9.220;2023-10-13T12:47:09;2.73;;;1.53;;
1715;SDS011;855;48.824;9.220;2023-10-13T12:49:53;3.57;;;2.33;;
1715;SDS011;855;48.824;9.220;2023-10-13T12:52:32;6.73;;;2.20;;
1715;SDS011;855;48.824;9.220;2023-10-13T12:54:59;8.23;;;2.13;;
1715;SDS011;855;48.824;9.220;2023-10-13T12:57:36;4.90;;;2.17;;
1715;SDS011;855;48.824;9.220;2023-10-13T13:00:10;3.73;;;2.30;;
1715;SDS011;855;48.824;9.220;2023-10-13T13:02:48;3.30;;;1.70;;
1715;SDS011;855;48.824;9.220;2023-10-13T13:05:17;12.33;;;2.67;;
1715;SDS011;855;48.824;9.220;2023-10-13T13:07:48;3.40;;;2.40;;
1715;SDS011;855;48.824;9.220;2023-10-13T13:10:17;3.27;;;1.80;;
1715;SDS011;855;48.824;9.220;2023-10-13T13:12:46;3.97;;;2.20;;
1715;SDS011;855;48.824;9.220;2023-10-13T13:15:12;2.57;;;1.57;;
1715;SDS011;855;48.824;9.220;2023-10-13T13:17:39;3.20;;;2.20;;
1715;SDS011;855;48.824;9.220;2023-10-13T13:20:07;5.40;;;2.27;;
1715;SDS011;855;48.824;9.220;2023-10-13T13:22:51;4.60;;;2.10;;
1715;SDS011;855;48.824;9.220;2023-10-13T13:25:18;7.03;;;2.37;;
1715;SDS011;855;48.824;9.220;2023-10-13T13:27:52;3.13;;;1.80;;
1715;SDS011;855;48.824;9.220;2023-10-13T13:30:18;9.23;;;2.30;;
1715;SDS011;855;48.824;9.220;2023-10-13T13:32:47;2.50;;;1.67;;
1715;SDS011;855;48.824;9.220;2023-10-13T13:35:15;3.73;;;2.00;;
1715;SDS011;855;48.824;9.220;2023-10-13T13:37:43;6.10;;;1.70;;
1715;SDS011;855;48.824;9.220;2023-10-13T13:40:10;13.53;;;2.00;;
1715;SDS011;855;48.824;9.220;2023-10-13T13:42:40;2.40;;;1.60;;
1715;SDS011;855;48.824;9.220;2023-10-13T13:45:12;8.07;;;2.57;;
1715;SDS011;855;48.824;9.220;2023-10-13T13:47:46;4.63;;;2.07;;
1715;SDS011;855;48.824;9.220;2023-10-13T13:50:18;3.43;;;2.27;;
1715;SDS011;855;48.824;9.220;2023-10-13T13:52:49;2.97;;;1.80;;
1715;SDS011;855;48.824;9.220;2023-10-13T13:55:17;6.10;;;2.63;;
1715;SDS011;855;48.824;9.220;2023-10-13T13:57:45;3.53;;;2.10;;
1715;SDS011;855;48.824;9.220;2023-10-13T14:00:16;6.03;;;2.00;;
1715;SDS011;855;48.824;9.220;2023-10-13T14:02:48;10.20;;;2.23;;
1715;SDS011;855;48.824;9.220;2023-10-13T14:05:15;3.33;;;1.73;;
1715;SDS011;855;48.824;9.220;2023-10-13T14:07:42;2.87;;;2.07;;
1715;SDS011;855;48.824;9.220;2023-10-13T14:10:14;4.33;;;2.10;;
1715;SDS011;855;48.824;9.220;2023-10-13T14:12:56;8.67;;;2.47;;
1715;SDS011;855;48.824;9.220;2023-10-13T14:15:32;5.33;;;2.13;;
1715;SDS011;855;48.824;9.220;2023-10-13T14:18:06;3.37;;;1.90;;
1715;SDS011;855;48.824;9.220;2023-10-13T14:20:37;4.57;;;2.10;;
1715;SDS011;855;48.824;9.220;2023-10-13T14:23:05;4.37;;;1.97;;
1715;SDS011;855;48.824;9.220;2023-10-13T14:25:35;2.77;;;1.57;;
1715;SDS011;855;48.824;9.220;2023-10-13T14:28:03;5.10;;;2.00;;
1715;SDS011;855;48.824;9.220;2023-10-13T14:30:30;4.20;;;1.90;;
1715;SDS011;855;48.824;9.220;2023-10-13T14:32:58;3.07;;;1.90;;
1715;SDS011;855;48.824;9.220;2023-10-13T14:35:26;4.63;;;1.80;;
1715;SDS011;855;48.824;9.220;2023-10-13T14:37:53;8.00;;;2.40;;
1715;SDS011;855;48.824;9.220;2023-10-13T14:40:19;4.33;;;2.30;;
1715;SDS011;855;48.824;9.220;2023-10-13T14:42:47;3.27;;;1.77;;
1715;SDS011;855;48.824;9.220;2023-10-13T14:45:14;6.40;;;1.90;;
1715;SDS011;855;48.824;9.220;2023-10-13T14:47:42;3.23;;;1.60;;
1715;SDS011;855;48.824;9.220;2023-10-13T14:50:11;2.10;;;1.57;;
1715;SDS011;855;48.824;9.220;2023-10-13T14:52:44;4.10;;;1.70;;
1715;SDS011;855;48.824;9.220;2023-10-13T14:55:13;3.70;;;2.13;;
1715;SDS011;855;48.824;9.220;2023-10-13T14:57:45;5.17;;;2.10;;
1715;SDS011;855;48.824;9.220;2023-10-13T15:00:15;6.53;;;2.17;;
1715;SDS011;855;48.824;9.220;2023-10-13T15:02:49;4.23;;;1.50;;
1715;SDS011;855;48.824;9.220;2023-10-13T15:05:19;3.33;;;1.80;;
1715;SDS011;855;48.824;9.220;2023-10-13T15:07:45;8.67;;;2.23;;
1715;SDS011;855;48.824;9.220;2023-10-13T15:10:13;2.80;;;1.70;;
1715;SDS011;855;48.824;9.220;2023-10-13T15:12:41;4.97;;;2.20;;
1715;SDS011;855;48.824;9.220;2023-10-13T15:15:09;9.20;;;2.27;;
1715;SDS011;855;48.824;9.220;2023-10-13T15:17:41;2.60;;;1.50;;
1715;SDS011;855;48.824;9.220;2023-10-13T15:20:08;5.73;;;1.50;;
1715;SDS011;855;48.824;9.220;2023-10-13T15:22:37;5.03;;;1.90;;
1715;SDS011;855;48.824;9.220;2023-10-13T15:25:05;4.33;;;1.90;;
1715;SDS011;855;48.824;9.220;2023-10-13T15:27:43;4.77;;;1.80;;
1715;SDS011;855;48.824;9.220;2023-10-13T15:30:15;3.27;;;1.40;;
1715;SDS011;855;48.824;9.220;2023-10-13T15:32:51;3.97;;;1.70;;
1715;SDS011;855;48.824;9.220;2023-10-13T15:35:20;4.10;;;1.90;;
1715;SDS011;855;48.824;9.220;2023-10-13T15:37:50;4.63;;;1.80;;
1715;SDS011;855;48.824;9.220;2023-10-13T15:40:18;5.37;;;1.37;;
1715;SDS011;855;48.824;9.220;2023-10-13T15:42:44;6.53;;;1.53;;
1715;SDS011;855;48.824;9.220;2023-10-13T15:45:11;5.87;;;1.90;;
1715;SDS011;855;48.824;9.220;2023-10-13T15:47:44;3.63;;;1.73;;
1715;SDS011;855;48.824;9.220;2023-10-13T15:50:13;8.83;;;1.73;;
1715;SDS011;855;48.824;9.220;2023-10-13T15:52:43;4.47;;;1.23;;
1715;SDS011;855;48.824;9.220;2023-10-13T15:55:13;4.47;;;1.70;;
1715;SDS011;855;48.824;9.220;2023-10-13T15:57:42;1.90;;;1.50;;
1715;SDS011;855;48.824;9.220;2023-10-13T16:00:10;3.60;;;1.50;;
1715;SDS011;855;48.824;9.220;2023-10-13T16:02:51;5.50;;;1.60;;